createdAt,value
2018-05-16T00:00:47.617Z,40.47
2018-05-16T00:03:13.653Z,38.40
2018-05-16T00:05:39.705Z,47.43
2018-05-16T00:08:05.722Z,39.60
2018-05-16T00:10:31.763Z,46.37
2018-05-16T00:12:57.836Z,49.47
2018-05-16T00:15:23.838Z,45.33
2018-05-16T00:17:49.921Z,42.33
2018-05-16T00:20:15.988Z,49.73
2018-05-16T00:22:41.996Z,47.50
2018-05-16T00:25:08.018Z,39.13
2018-05-16T00:27:34.025Z,50.17
2018-05-16T00:30:00.135Z,49.43
2018-05-16T00:32:27.136Z,39.93
2018-05-16T00:34:53.133Z,49.93
2018-05-16T00:37:19.164Z,48.60
2018-05-16T00:39:45.213Z,50.20
2018-05-16T00:42:11.233Z,46.10
2018-05-16T00:44:37.243Z,45.13
2018-05-16T00:47:03.345Z,50.30
2018-05-16T00:49:29.394Z,46.47
2018-05-16T00:51:55.406Z,36.30
2018-05-16T00:54:21.438Z,47.13
2018-05-16T00:56:47.461Z,48.27
2018-05-16T00:59:13.569Z,49.83
2018-05-16T01:01:39.647Z,36.37
2018-05-16T01:04:05.654Z,43.77
2018-05-16T01:06:31.699Z,44.67
2018-05-16T01:08:57.750Z,45.20
2018-05-16T01:11:23.784Z,43.87
2018-05-16T01:13:49.804Z,47.33
2018-05-16T01:16:15.881Z,44.27
2018-05-16T01:18:41.934Z,44.37
2018-05-16T01:21:07.959Z,44.40
2018-05-16T01:23:34.003Z,45.07
2018-05-16T01:26:00.028Z,45.80
2018-05-16T01:28:26.076Z,44.50
2018-05-16T01:30:52.091Z,44.93
2018-05-16T01:33:18.095Z,42.60
2018-05-16T01:35:44.106Z,43.43
2018-05-16T01:38:10.155Z,44.97
2018-05-16T01:40:36.166Z,43.43
2018-05-16T01:43:02.188Z,44.20
2018-05-16T01:45:28.289Z,43.40
2018-05-16T01:47:54.292Z,43.00
2018-05-16T01:50:20.326Z,43.00
2018-05-16T01:52:46.416Z,43.00
2018-05-16T01:55:12.942Z,45.67
2018-05-16T01:57:39.950Z,40.60
2018-05-16T02:00:05.934Z,40.70
2018-05-16T02:02:32.198Z,41.83
2018-05-16T02:04:58.917Z,42.20
2018-05-16T02:07:25.046Z,43.87
2018-05-16T02:09:51.065Z,39.77
2018-05-16T02:12:17.065Z,42.20
2018-05-16T02:14:43.129Z,42.97
2018-05-16T02:17:09.158Z,40.90
2018-05-16T02:19:35.179Z,42.50
2018-05-16T02:22:01.221Z,41.67
2018-05-16T02:24:27.281Z,39.03
2018-05-16T02:26:53.305Z,38.73
2018-05-16T02:29:19.314Z,40.10
2018-05-16T02:31:45.442Z,37.30
2018-05-16T02:34:11.487Z,35.50
2018-05-16T02:36:37.509Z,36.73
2018-05-16T02:39:04.514Z,33.40
2018-05-16T02:41:30.567Z,35.80
2018-05-16T02:43:56.800Z,32.93
2018-05-16T02:46:22.822Z,38.20
2018-05-16T02:48:49.255Z,37.17
2018-05-16T02:51:15.284Z,39.93
2018-05-16T02:53:41.290Z,41.63
2018-05-16T02:56:07.394Z,43.63
2018-05-16T02:58:33.450Z,38.50
2018-05-16T03:00:59.490Z,38.23
2018-05-16T03:03:25.566Z,36.57
2018-05-16T03:05:51.586Z,37.37
2018-05-16T03:08:17.591Z,37.60
2018-05-16T03:10:43.614Z,41.80
2018-05-16T03:13:09.957Z,40.33
2018-05-16T03:15:35.985Z,37.60
2018-05-16T03:18:02.070Z,38.53
2018-05-16T03:20:28.109Z,40.00
2018-05-16T03:22:54.202Z,38.23
2018-05-16T03:25:20.773Z,41.10
2018-05-16T03:27:46.893Z,41.03
2018-05-16T03:30:13.010Z,49.87
2018-05-16T03:32:39.367Z,39.37
2018-05-16T03:35:05.395Z,41.17
2018-05-16T03:37:31.437Z,36.03
2018-05-16T03:39:57.461Z,46.47
2018-05-16T03:42:23.501Z,35.50
2018-05-16T03:44:49.519Z,37.97
2018-05-16T03:47:15.541Z,46.20
2018-05-16T03:49:41.979Z,36.20
2018-05-16T03:52:07.985Z,39.33
2018-05-16T03:54:33.990Z,42.77
2018-05-16T03:57:00.010Z,37.27
2018-05-16T03:59:38.131Z,39.60
2018-05-16T04:02:16.494Z,33.77
2018-05-16T04:04:42.446Z,38.67
2018-05-16T04:07:08.442Z,32.30
2018-05-16T04:09:34.530Z,32.87
2018-05-16T04:12:00.627Z,41.83
2018-05-16T04:14:26.904Z,30.17
2018-05-16T04:16:52.907Z,37.03
2018-05-16T04:19:18.965Z,33.30
2018-05-16T04:21:45.058Z,39.30
2018-05-16T04:24:11.094Z,31.00
2018-05-16T04:26:37.140Z,30.07
2018-05-16T04:29:03.144Z,28.13
2018-05-16T04:31:29.292Z,25.77
2018-05-16T04:33:55.342Z,29.30
2018-05-16T04:36:21.368Z,30.67
2018-05-16T04:38:47.413Z,31.60
2018-05-16T04:41:13.429Z,28.53
2018-05-16T04:43:39.497Z,25.83
2018-05-16T04:46:05.524Z,21.97
2018-05-16T04:48:31.605Z,21.73
2018-05-16T04:50:57.633Z,26.67
2018-05-16T04:53:23.651Z,30.47
2018-05-16T04:55:49.682Z,19.37
2018-05-16T04:58:15.747Z,22.97
2018-05-16T05:00:42.906Z,27.13
2018-05-16T05:03:09.043Z,19.47
2018-05-16T05:05:35.122Z,24.87
2018-05-16T05:08:01.162Z,23.30
2018-05-16T05:10:27.186Z,24.57
2018-05-16T05:12:53.334Z,21.67
2018-05-16T05:15:19.672Z,21.50
2018-05-16T05:17:45.723Z,20.10
2018-05-16T05:20:11.729Z,19.30
2018-05-16T05:22:37.800Z,20.53
2018-05-16T05:25:03.844Z,21.27
2018-05-16T05:27:29.854Z,21.67
2018-05-16T05:29:55.867Z,18.43
2018-05-16T05:32:22.146Z,23.00
2018-05-16T05:34:48.519Z,23.43
2018-05-16T05:37:14.820Z,18.87
2018-05-16T05:39:40.841Z,17.73
2018-05-16T05:42:06.929Z,17.03
2018-05-16T05:44:33.077Z,25.53
2018-05-16T05:46:59.101Z,20.83
2018-05-16T05:49:25.126Z,23.33
2018-05-16T05:51:51.186Z,19.53
2018-05-16T05:54:17.368Z,16.67
2018-05-16T05:56:43.371Z,21.17
2018-05-16T05:59:09.395Z,24.40
2018-05-16T06:01:35.503Z,29.57
2018-05-16T06:04:01.525Z,22.43
2018-05-16T06:06:27.550Z,21.17
2018-05-16T06:08:53.622Z,26.20
2018-05-16T06:11:19.638Z,25.93
2018-05-16T06:13:45.665Z,22.17
2018-05-16T06:16:11.673Z,27.60
2018-05-16T06:18:37.679Z,22.73
2018-05-16T06:21:03.690Z,19.57
2018-05-16T06:23:29.723Z,21.83
2018-05-16T06:25:55.736Z,22.07
2018-05-16T06:28:21.753Z,17.10
2018-05-16T06:30:47.827Z,19.40
2018-05-16T06:33:13.891Z,24.27
2018-05-16T06:35:39.999Z,15.90
2018-05-16T06:38:06.091Z,16.40
2018-05-16T06:40:32.088Z,18.93
2018-05-16T06:42:58.199Z,21.93
2018-05-16T06:45:24.330Z,16.67
2018-05-16T06:47:50.394Z,15.43
2018-05-16T06:50:16.438Z,19.53
2018-05-16T06:52:42.915Z,16.10
2018-05-16T06:55:09.564Z,16.23
2018-05-16T06:57:35.998Z,19.03
2018-05-16T07:00:02.030Z,15.33
2018-05-16T07:02:28.079Z,19.90
2018-05-16T07:04:54.190Z,14.77
2018-05-16T07:07:20.723Z,18.27
2018-05-16T07:09:46.849Z,17.90
2018-05-16T07:12:13.487Z,14.27
2018-05-16T07:14:39.573Z,15.73
2018-05-16T07:17:05.701Z,15.10
2018-05-16T07:19:31.850Z,17.73
2018-05-16T07:21:57.914Z,19.97
2018-05-16T07:24:24.167Z,15.20
2018-05-16T07:26:50.241Z,19.87
2018-05-16T07:29:16.289Z,15.57
2018-05-16T07:31:42.425Z,16.47
2018-05-16T07:34:08.524Z,18.37
2018-05-16T07:36:34.673Z,14.43
2018-05-16T07:39:00.728Z,17.03
2018-05-16T07:41:26.820Z,16.70
2018-05-16T07:43:53.020Z,15.70
2018-05-16T07:46:19.177Z,15.60
2018-05-16T07:48:45.274Z,15.17
2018-05-16T07:51:11.410Z,15.43
2018-05-16T07:53:37.415Z,11.20
2018-05-16T07:56:03.588Z,15.77
2018-05-16T07:58:29.615Z,16.77
2018-05-16T08:00:55.677Z,17.23
2018-05-16T08:03:21.760Z,19.33
2018-05-16T08:05:47.770Z,17.27
2018-05-16T08:08:13.822Z,17.87
2018-05-16T08:10:39.921Z,15.43
2018-05-16T08:13:05.963Z,16.13
2018-05-16T08:15:31.982Z,18.23
2018-05-16T08:17:57.995Z,17.60
2018-05-16T08:20:24.127Z,17.57
2018-05-16T08:22:50.222Z,15.30
2018-05-16T08:25:16.296Z,19.33
2018-05-16T08:27:42.378Z,16.80
2018-05-16T08:30:08.665Z,18.07
2018-05-16T08:32:34.738Z,17.53
2018-05-16T08:35:00.786Z,17.30
2018-05-16T08:37:26.834Z,20.27
2018-05-16T08:39:53.080Z,17.83
2018-05-16T08:42:19.220Z,21.17
2018-05-16T08:44:45.869Z,16.80
2018-05-16T08:47:11.922Z,15.90
2018-05-16T08:49:37.983Z,15.33
2018-05-16T08:52:04.054Z,14.73
2018-05-16T08:54:30.171Z,20.90
2018-05-16T08:56:56.207Z,17.30
2018-05-16T08:59:22.257Z,16.30
2018-05-16T09:01:48.337Z,17.70
2018-05-16T09:04:14.394Z,17.40
2018-05-16T09:06:40.478Z,20.07
2018-05-16T09:09:06.527Z,16.83
2018-05-16T09:11:32.642Z,16.67
2018-05-16T09:13:58.781Z,15.70
2018-05-16T09:16:24.834Z,17.40
2018-05-16T09:18:50.886Z,16.07
2018-05-16T09:21:16.982Z,17.67
2018-05-16T09:23:43.041Z,15.83
2018-05-16T09:26:09.365Z,20.67
2018-05-16T09:28:36.977Z,17.10
2018-05-16T09:31:03.100Z,23.53
2018-05-16T09:33:30.086Z,16.30
2018-05-16T09:35:56.099Z,20.03
2018-05-16T09:38:22.120Z,21.63
2018-05-16T09:40:48.185Z,16.13
2018-05-16T09:43:14.219Z,17.50
2018-05-16T09:45:40.259Z,18.97
2018-05-16T09:48:06.273Z,18.07
2018-05-16T09:50:32.315Z,18.93
2018-05-16T09:52:58.542Z,21.63
2018-05-16T09:55:24.645Z,16.67
2018-05-16T09:57:50.724Z,19.47
2018-05-16T10:00:16.818Z,19.80
2018-05-16T10:02:42.956Z,18.47
2018-05-16T10:05:08.983Z,17.87
2018-05-16T10:07:35.074Z,13.43
2018-05-16T10:10:01.110Z,18.67
2018-05-16T10:12:27.264Z,22.87
2018-05-16T10:14:53.776Z,16.77
2018-05-16T10:17:19.865Z,16.60
2018-05-16T10:19:45.994Z,19.50
2018-05-16T10:22:12.037Z,16.07
2018-05-16T10:24:38.075Z,19.50
2018-05-16T10:27:04.209Z,17.33
2018-05-16T10:29:30.291Z,19.97
2018-05-16T10:31:56.385Z,17.43
2018-05-16T10:34:22.592Z,18.90
2018-05-16T10:36:48.541Z,19.43
2018-05-16T10:39:14.614Z,20.50
2018-05-16T10:41:40.754Z,19.80
2018-05-16T10:44:06.853Z,17.70
2018-05-16T10:46:33.009Z,17.50
2018-05-16T10:48:59.065Z,17.30
2018-05-16T10:51:25.199Z,20.20
2018-05-16T10:53:51.378Z,18.80
2018-05-16T10:56:18.151Z,16.47
2018-05-16T10:58:44.216Z,18.27
2018-05-16T11:01:10.270Z,15.67
2018-05-16T11:03:36.329Z,16.80
2018-05-16T11:06:02.472Z,13.13
2018-05-16T11:08:28.674Z,19.03
2018-05-16T11:10:54.720Z,17.20
2018-05-16T11:13:20.839Z,14.40
2018-05-16T11:15:46.974Z,15.30
2018-05-16T11:18:13.148Z,18.07
2018-05-16T11:20:39.171Z,14.40
2018-05-16T11:23:05.214Z,15.63
2018-05-16T11:25:31.297Z,15.50
2018-05-16T11:27:58.254Z,16.30
2018-05-16T11:30:24.371Z,17.50
2018-05-16T11:32:50.431Z,16.57
2018-05-16T11:35:16.567Z,18.93
2018-05-16T11:37:42.630Z,16.73
2018-05-16T11:40:08.749Z,17.33
2018-05-16T11:42:34.810Z,17.47
2018-05-16T11:45:00.969Z,20.97
2018-05-16T11:47:27.038Z,16.10
2018-05-16T11:49:53.177Z,17.20
2018-05-16T11:52:19.349Z,19.00
2018-05-16T11:54:45.387Z,19.90
2018-05-16T11:57:11.431Z,16.77
2018-05-16T11:59:37.459Z,16.60
2018-05-16T12:02:03.939Z,20.07
2018-05-16T12:04:30.034Z,13.97
2018-05-16T12:06:56.093Z,13.03
2018-05-16T12:09:22.178Z,16.97
2018-05-16T12:11:48.217Z,16.20
2018-05-16T12:14:14.250Z,15.87
2018-05-16T12:16:40.284Z,17.60
2018-05-16T12:19:06.359Z,16.07
2018-05-16T12:21:32.430Z,14.87
2018-05-16T12:23:58.484Z,17.13
2018-05-16T12:26:24.536Z,17.07
2018-05-16T12:28:50.763Z,18.47
2018-05-16T12:31:16.922Z,14.27
2018-05-16T12:33:43.040Z,14.23
2018-05-16T12:36:09.203Z,15.70
2018-05-16T12:38:35.238Z,14.00
2018-05-16T12:41:01.649Z,18.43
2018-05-16T12:43:29.637Z,14.80
2018-05-16T12:45:55.687Z,18.20
2018-05-16T12:48:21.727Z,17.20
2018-05-16T12:50:47.754Z,17.17
2018-05-16T12:53:13.832Z,14.70
2018-05-16T12:55:39.978Z,19.90
2018-05-16T12:58:05.998Z,14.67
2018-05-16T13:00:32.022Z,13.20
2018-05-16T13:02:58.045Z,19.47
2018-05-16T13:05:24.208Z,14.77
2018-05-16T13:07:50.245Z,14.73
2018-05-16T13:10:16.330Z,16.53
2018-05-16T13:12:42.342Z,15.10
2018-05-16T13:15:08.411Z,15.67
2018-05-16T13:17:34.494Z,16.87
2018-05-16T13:20:00.519Z,15.90
2018-05-16T13:22:26.580Z,15.50
2018-05-16T13:24:52.638Z,13.87
2018-05-16T13:27:18.723Z,18.80
2018-05-16T13:29:45.019Z,17.87
2018-05-16T13:32:11.051Z,15.47
2018-05-16T13:34:37.087Z,17.17
2018-05-16T13:37:03.182Z,17.50
2018-05-16T13:39:29.267Z,20.73
2018-05-16T13:41:55.303Z,17.17
2018-05-16T13:44:21.332Z,15.97
2018-05-16T13:46:47.544Z,13.23
2018-05-16T13:49:13.521Z,16.13
2018-05-16T13:51:39.615Z,17.67
2018-05-16T13:54:05.678Z,20.13
2018-05-16T13:56:31.739Z,20.47
2018-05-16T13:58:57.803Z,18.10
2018-05-16T14:01:23.890Z,18.13
2018-05-16T14:03:49.905Z,17.17
2018-05-16T14:06:15.947Z,16.13
2018-05-16T14:08:41.981Z,17.67
2018-05-16T14:11:08.056Z,20.83
2018-05-16T14:13:34.118Z,18.53
2018-05-16T14:16:00.154Z,23.10
2018-05-16T14:18:26.270Z,17.60
2018-05-16T14:20:52.340Z,15.40
2018-05-16T14:23:18.453Z,18.23
2018-05-16T14:25:44.694Z,17.50
2018-05-16T14:28:11.465Z,22.30
2018-05-16T14:30:37.526Z,20.57
2018-05-16T14:33:03.592Z,21.37
2018-05-16T14:35:29.617Z,17.90
2018-05-16T14:37:55.723Z,18.17
2018-05-16T14:40:21.738Z,18.73
2018-05-16T14:42:47.905Z,19.70
2018-05-16T14:45:13.917Z,21.53
2018-05-16T14:47:39.946Z,17.87
2018-05-16T14:50:05.962Z,18.37
2018-05-16T14:52:32.018Z,18.77
2018-05-16T14:54:58.114Z,17.67
2018-05-16T14:57:24.158Z,16.67
2018-05-16T14:59:50.192Z,21.47
2018-05-16T15:02:16.239Z,20.70
2018-05-16T15:04:42.294Z,20.70
2018-05-16T15:07:08.423Z,17.27
2018-05-16T15:09:34.513Z,17.90
2018-05-16T15:12:00.629Z,17.47
2018-05-16T15:14:26.647Z,12.63
2018-05-16T15:16:52.858Z,19.33
2018-05-16T15:19:19.090Z,17.83
2018-05-16T15:21:45.183Z,18.67
2018-05-16T15:24:11.247Z,18.87
2018-05-16T15:26:37.284Z,18.80
2018-05-16T15:29:03.309Z,20.97
2018-05-16T15:31:30.032Z,16.00
2018-05-16T15:33:56.124Z,19.17
2018-05-16T15:36:22.142Z,18.97
2018-05-16T15:38:48.184Z,19.73
2018-05-16T15:41:14.289Z,18.80
2018-05-16T15:43:40.530Z,24.97
2018-05-16T15:46:06.977Z,22.07
2018-05-16T15:48:33.587Z,21.10
2018-05-16T15:50:59.694Z,24.27
2018-05-16T15:53:25.783Z,25.10
2018-05-16T15:55:51.863Z,17.40
2018-05-16T15:58:17.926Z,19.93
2018-05-16T16:00:43.967Z,30.83
2018-05-16T16:03:10.011Z,17.67
2018-05-16T16:05:36.113Z,20.50
2018-05-16T16:08:02.227Z,23.47
2018-05-16T16:10:28.177Z,22.60
2018-05-16T16:12:54.197Z,23.97
2018-05-16T16:15:20.233Z,18.93
2018-05-16T16:17:46.301Z,21.03
2018-05-16T16:20:12.303Z,20.27
2018-05-16T16:22:38.317Z,18.50
2018-05-16T16:25:04.346Z,18.93
2018-05-16T16:27:30.402Z,19.47
2018-05-16T16:29:56.482Z,21.43
2018-05-16T16:32:22.574Z,21.10
2018-05-16T16:34:48.641Z,20.13
2018-05-16T16:37:14.692Z,24.10
2018-05-16T16:39:40.752Z,21.37
2018-05-16T16:42:07.415Z,21.77
2018-05-16T16:44:33.487Z,24.17
2018-05-16T16:46:59.559Z,21.57
2018-05-16T16:49:25.631Z,26.07
2018-05-16T16:51:51.687Z,19.80
2018-05-16T16:54:17.718Z,18.93
2018-05-16T16:56:43.838Z,20.80
2018-05-16T16:59:09.932Z,18.63
2018-05-16T17:01:36.075Z,22.00
2018-05-16T17:04:02.108Z,27.13
2018-05-16T17:06:28.161Z,27.83
2018-05-16T17:08:54.324Z,21.13
2018-05-16T17:11:20.400Z,29.30
2018-05-16T17:13:46.574Z,24.27
2018-05-16T17:16:12.671Z,22.37
2018-05-16T17:18:38.720Z,29.47
2018-05-16T17:21:04.818Z,30.50
2018-05-16T17:23:30.987Z,29.30
2018-05-16T17:25:57.208Z,25.07
2018-05-16T17:28:23.364Z,27.87
2018-05-16T17:30:49.481Z,24.57
2018-05-16T17:33:15.668Z,27.37
2018-05-16T17:35:41.852Z,28.33
2018-05-16T17:38:07.938Z,33.53
2018-05-16T17:40:34.097Z,27.17
2018-05-16T17:43:00.156Z,32.97
2018-05-16T17:45:26.262Z,29.67
2018-05-16T17:47:52.353Z,24.07
2018-05-16T17:50:18.497Z,32.30
2018-05-16T17:52:44.706Z,27.20
2018-05-16T17:55:10.834Z,35.60
2018-05-16T17:57:36.962Z,26.10
2018-05-16T18:00:03.188Z,30.97
2018-05-16T18:02:29.230Z,29.70
2018-05-16T18:04:55.380Z,34.70
2018-05-16T18:07:22.427Z,26.07
2018-05-16T18:09:48.490Z,25.60
2018-05-16T18:12:14.539Z,30.67
2018-05-16T18:15:01.596Z,32.60
2018-05-16T18:17:27.770Z,30.70
2018-05-16T18:19:53.797Z,30.23
2018-05-16T18:22:19.869Z,32.70
2018-05-16T18:24:45.915Z,34.97
2018-05-16T18:27:11.974Z,23.40
2018-05-16T18:29:37.995Z,30.93
2018-05-16T18:32:04.001Z,31.70
2018-05-16T18:34:30.171Z,37.93
2018-05-16T18:36:56.239Z,36.00
2018-05-16T18:39:22.365Z,28.27
2018-05-16T18:41:48.401Z,30.67
2018-05-16T18:44:14.530Z,29.80
2018-05-16T18:46:40.568Z,27.20
2018-05-16T18:49:06.685Z,32.70
2018-05-16T18:51:32.764Z,30.60
2018-05-16T18:53:58.806Z,26.53
2018-05-16T18:56:24.925Z,26.60
2018-05-16T18:58:51.049Z,36.17
2018-05-16T19:01:17.193Z,27.00
2018-05-16T19:03:43.232Z,30.30
2018-05-16T19:06:09.302Z,23.97
2018-05-16T19:08:35.387Z,27.10
2018-05-16T19:11:01.482Z,34.45
2018-05-16T19:13:27.552Z,37.73
2018-05-16T19:15:53.609Z,34.33
2018-05-16T19:18:20.658Z,27.13
2018-05-16T19:20:46.888Z,28.58
2018-05-16T19:23:13.055Z,22.62
2018-05-16T19:25:39.198Z,29.80
2018-05-16T19:28:05.225Z,30.45
2018-05-16T19:30:31.311Z,28.37
2018-05-16T19:32:58.002Z,32.00
2018-05-16T19:35:24.093Z,34.30
2018-05-16T19:37:50.133Z,35.57
2018-05-16T19:40:16.177Z,24.83
2018-05-16T19:42:42.290Z,28.02
2018-05-16T19:45:08.578Z,29.73
2018-05-16T19:47:34.636Z,25.15
2018-05-16T19:50:00.745Z,33.40
2018-05-16T19:52:26.759Z,33.10
2018-05-16T19:54:52.851Z,27.37
2018-05-16T19:57:19.006Z,24.00
2018-05-16T19:59:45.060Z,24.70
2018-05-16T20:02:11.143Z,28.95
2018-05-16T20:04:37.266Z,22.95
2018-05-16T20:07:03.342Z,24.40
2018-05-16T20:09:29.407Z,25.60
2018-05-16T20:11:55.489Z,27.35
2018-05-16T20:14:21.650Z,30.45
2018-05-16T20:16:47.749Z,29.70
2018-05-16T20:19:13.798Z,29.42
2018-05-16T20:21:39.851Z,30.08
2018-05-16T20:24:06.648Z,28.33
2018-05-16T20:26:33.276Z,34.13
2018-05-16T20:28:59.359Z,31.80
2018-05-16T20:31:25.506Z,24.37
2018-05-16T20:33:51.633Z,18.55
2018-05-16T20:36:18.077Z,29.90
2018-05-16T20:38:44.174Z,37.83
2018-05-16T20:41:10.451Z,34.13
2018-05-16T20:43:36.798Z,28.80
2018-05-16T20:46:03.151Z,30.10
2018-05-16T20:48:30.416Z,27.70
2018-05-16T20:50:56.531Z,28.90
2018-05-16T20:53:23.182Z,24.87
2018-05-16T20:55:50.775Z,29.87
2018-05-16T20:58:17.894Z,28.75
2018-05-16T21:00:44.045Z,26.67
2018-05-16T21:03:10.169Z,28.95
2018-05-16T21:05:36.264Z,26.17
2018-05-16T21:08:02.309Z,27.65
2018-05-16T21:10:28.338Z,23.77
2018-05-16T21:12:54.419Z,32.53
2018-05-16T21:15:20.539Z,29.30
2018-05-16T21:17:47.025Z,32.22
2018-05-16T21:20:13.059Z,23.40
2018-05-16T21:22:39.095Z,27.50
2018-05-16T21:25:05.150Z,26.75
2018-05-16T21:27:32.077Z,26.40
2018-05-16T21:29:58.250Z,27.90
2018-05-16T21:32:24.320Z,27.00
2018-05-16T21:34:50.380Z,22.98
2018-05-16T21:37:16.601Z,29.73
2018-05-16T21:39:42.630Z,26.05
2018-05-16T21:42:09.292Z,24.87
2018-05-16T21:44:35.461Z,33.63
2018-05-16T21:47:01.593Z,28.58
2018-05-16T21:49:27.702Z,19.62
2018-05-16T21:51:53.746Z,26.27
2018-05-16T21:54:19.783Z,27.77
2018-05-16T21:56:45.880Z,20.70
2018-05-16T21:59:12.068Z,28.07
2018-05-16T22:03:21.139Z,25.25
2018-05-16T22:05:47.265Z,36.53
2018-05-16T22:08:13.394Z,28.08
2018-05-16T22:10:39.519Z,23.90
2018-05-16T22:13:05.590Z,27.23
2018-05-16T22:15:31.608Z,25.50
2018-05-16T22:17:57.720Z,28.83
2018-05-16T22:20:23.737Z,28.80
2018-05-16T22:22:49.859Z,27.92
2018-05-16T22:25:15.916Z,24.50
2018-05-16T22:27:42.035Z,19.92
2018-05-16T22:30:08.109Z,31.48
2018-05-16T22:32:40.206Z,33.03
2018-05-16T22:35:12.277Z,23.02
2018-05-16T22:37:45.310Z,27.40
2018-05-16T22:40:17.631Z,22.52
2018-05-16T22:42:43.572Z,26.83
2018-05-16T22:45:09.646Z,21.97
2018-05-16T22:47:35.854Z,18.50
2018-05-16T22:50:02.842Z,21.62
2018-05-16T22:52:28.966Z,21.23
2018-05-16T22:54:55.280Z,22.30
2018-05-16T22:57:21.553Z,17.90
2018-05-16T22:59:47.631Z,20.80
2018-05-16T23:02:13.733Z,26.37
2018-05-16T23:04:40.004Z,21.02
2018-05-16T23:07:06.021Z,23.80
2018-05-16T23:09:32.151Z,18.27
2018-05-16T23:11:58.337Z,22.00
2018-05-16T23:14:24.367Z,25.65
2018-05-16T23:16:51.064Z,18.42
2018-05-16T23:19:17.239Z,21.35
2018-05-16T23:21:43.412Z,23.83
2018-05-16T23:24:09.790Z,19.92
2018-05-16T23:26:35.822Z,16.55
2018-05-16T23:29:01.882Z,21.35
2018-05-16T23:31:27.917Z,17.40
2018-05-16T23:33:53.999Z,23.80
2018-05-16T23:36:20.041Z,18.12
2018-05-16T23:38:46.045Z,23.52
2018-05-16T23:41:12.104Z,20.15
2018-05-16T23:43:38.128Z,23.77
2018-05-16T23:46:04.165Z,23.40
2018-05-16T23:48:30.230Z,22.70
2018-05-16T23:50:56.806Z,28.23
2018-05-16T23:53:22.881Z,20.30
2018-05-16T23:55:49.050Z,27.10
2018-05-16T23:58:15.145Z,28.08
